sensor_id;sensor_type;location;lat;lon;timestamp;pressure;altitude;pressure_sealevel;temperature;humidity
46430;BME280;32131;53.454;-6.180;2022-09-17T00:01:22;102568.66;;;8.89;73.50
46430;BME280;32131;53.454;-6.180;2022-09-17T00:04:09;102565.91;;;8.86;73.82
46430;BME280;32131;53.454;-6.180;2022-09-17T00:06:47;102566.88;;;8.88;73.75
46430;BME280;32131;53.454;-6.180;2022-09-17T00:09:23;102573.75;;;8.87;73.61
46430;BME280;32131;53.454;-6.180;2022-09-17T00:12:05;102573.81;;;8.89;73.53
46430;BME280;32131;53.454;-6.180;2022-09-17T00:14:39;102574.47;;;8.85;74.03
46430;BME280;32131;53.454;-6.180;2022-09-17T00:17:08;102565.59;;;8.79;73.91
46430;BME280;32131;53.454;-6.180;2022-09-17T00:19:41;102570.63;;;8.76;74.21
46430;BME280;32131;53.454;-6.180;2022-09-17T00:22:13;102560.88;;;8.71;74.32
46430;BME280;32131;53.454;-6.180;2022-09-17T00:24:42;102563.53;;;8.72;74.30
46430;BME280;32131;53.454;-6.180;2022-09-17T00:27:11;102574.56;;;8.70;74.33
46430;BME280;32131;53.454;-6.180;2022-09-17T00:29:48;102573.66;;;8.69;74.41
46430;BME280;32131;53.454;-6.180;2022-09-17T00:32:19;102579.63;;;8.68;74.54
46430;BME280;32131;53.454;-6.180;2022-09-17T00:35:55;102581.22;;;8.66;74.51
46430;BME280;32131;53.454;-6.180;2022-09-17T00:38:30;102583.00;;;8.67;74.58
46430;BME280;32131;53.454;-6.180;2022-09-17T00:41:28;102569.00;;;8.62;74.85
46430;BME280;32131;53.454;-6.180;2022-09-17T00:44:46;102576.66;;;8.60;74.68
46430;BME280;32131;53.454;-6.180;2022-09-17T00:47:27;102565.31;;;8.57;74.85
46430;BME280;32131;53.454;-6.180;2022-09-17T00:50:10;102558.19;;;8.53;74.82
46430;BME280;32131;53.454;-6.180;2022-09-17T00:52:46;102558.19;;;8.53;75.03
46430;BME280;32131;53.454;-6.180;2022-09-17T00:55:39;102558.06;;;8.49;74.98
46430;BME280;32131;53.454;-6.180;2022-09-17T00:58:25;102575.28;;;8.51;75.14
46430;BME280;32131;53.454;-6.180;2022-09-17T01:00:57;102569.97;;;8.47;75.30
46430;BME280;32131;53.454;-6.180;2022-09-17T01:03:30;102563.78;;;8.45;75.31
46430;BME280;32131;53.454;-6.180;2022-09-17T01:06:08;102557.72;;;8.43;75.75
46430;BME280;32131;53.454;-6.180;2022-09-17T01:09:00;102559.31;;;8.41;75.86
46430;BME280;32131;53.454;-6.180;2022-09-17T01:11:44;102555.75;;;8.39;76.17
46430;BME280;32131;53.454;-6.180;2022-09-17T01:14:35;102553.13;;;8.38;76.34
46430;BME280;32131;53.454;-6.180;2022-09-17T01:17:26;102561.63;;;8.37;76.74
46430;BME280;32131;53.454;-6.180;2022-09-17T01:23:17;102549.56;;;8.36;77.19
46430;BME280;32131;53.454;-6.180;2022-09-17T01:26:02;102553.84;;;8.35;77.56
46430;BME280;32131;53.454;-6.180;2022-09-17T01:28:41;102562.34;;;8.34;77.85
46430;BME280;32131;53.454;-6.180;2022-09-17T01:31:34;102553.66;;;8.32;78.15
46430;BME280;32131;53.454;-6.180;2022-09-17T01:34:14;102559.53;;;8.29;78.52
46430;BME280;32131;53.454;-6.180;2022-09-17T01:37:04;102550.91;;;8.29;78.21
46430;BME280;32131;53.454;-6.180;2022-09-17T01:39:45;102550.59;;;8.23;78.58
46430;BME280;32131;53.454;-6.180;2022-09-17T01:42:24;102559.03;;;8.20;78.63
46430;BME280;32131;53.454;-6.180;2022-09-17T01:45:03;102552.84;;;8.16;78.67
46430;BME280;32131;53.454;-6.180;2022-09-17T01:47:39;102551.69;;;8.11;78.80
46430;BME280;32131;53.454;-6.180;2022-09-17T01:50:13;102554.91;;;8.07;79.07
46430;BME280;32131;53.454;-6.180;2022-09-17T01:52:47;102552.16;;;8.04;79.05
46430;BME280;32131;53.454;-6.180;2022-09-17T01:55:29;102552.00;;;8.01;79.27
46430;BME280;32131;53.454;-6.180;2022-09-17T01:58:04;102550.03;;;7.97;79.27
46430;BME280;32131;53.454;-6.180;2022-09-17T02:00:46;102555.19;;;7.97;79.30
46430;BME280;32131;53.454;-6.180;2022-09-17T02:03:39;102556.91;;;7.96;79.35
46430;BME280;32131;53.454;-6.180;2022-09-17T02:06:30;102555.13;;;7.95;79.44
46430;BME280;32131;53.454;-6.180;2022-09-17T02:09:14;102558.22;;;7.90;79.40
46430;BME280;32131;53.454;-6.180;2022-09-17T02:12:05;102562.41;;;7.87;79.45
46430;BME280;32131;53.454;-6.180;2022-09-17T02:14:59;102571.09;;;7.90;79.36
46430;BME280;32131;53.454;-6.180;2022-09-17T02:17:40;102561.41;;;7.85;79.40
46430;BME280;32131;53.454;-6.180;2022-09-17T02:20:15;102570.03;;;7.86;79.63
46430;BME280;32131;53.454;-6.180;2022-09-17T02:23:05;102570.75;;;7.83;79.59
46430;BME280;32131;53.454;-6.180;2022-09-17T02:25:43;102566.50;;;7.84;79.55
46430;BME280;32131;53.454;-6.180;2022-09-17T02:28:35;102559.31;;;7.78;79.67
46430;BME280;32131;53.454;-6.180;2022-09-17T02:31:15;102561.81;;;7.77;79.74
46430;BME280;32131;53.454;-6.180;2022-09-17T02:33:50;102562.53;;;7.74;79.75
46430;BME280;32131;53.454;-6.180;2022-09-17T02:36:42;102560.75;;;7.73;80.05
46430;BME280;32131;53.454;-6.180;2022-09-17T02:39:33;102563.31;;;7.73;80.00
46430;BME280;32131;53.454;-6.180;2022-09-17T02:42:27;102563.94;;;7.69;80.05
46430;BME280;32131;53.454;-6.180;2022-09-17T02:45:11;102570.13;;;7.72;80.10
46430;BME280;32131;53.454;-6.180;2022-09-17T02:48:08;102552.59;;;7.65;80.20
46430;BME280;32131;53.454;-6.180;2022-09-17T02:51:07;102568.00;;;7.65;80.19
46430;BME280;32131;53.454;-6.180;2022-09-17T02:53:58;102557.47;;;7.61;80.13
46430;BME280;32131;53.454;-6.180;2022-09-17T02:56:42;102561.66;;;7.59;80.37
46430;BME280;32131;53.454;-6.180;2022-09-17T02:59:20;102558.81;;;7.54;80.78
46430;BME280;32131;53.454;-6.180;2022-09-17T03:02:04;102564.84;;;7.54;80.71
46430;BME280;32131;53.454;-6.180;2022-09-17T03:04:41;102553.56;;;7.52;80.68
46430;BME280;32131;53.454;-6.180;2022-09-17T03:07:21;102563.06;;;7.53;80.82
46430;BME280;32131;53.454;-6.180;2022-09-17T03:10:01;102557.59;;;7.47;81.25
46430;BME280;32131;53.454;-6.180;2022-09-17T03:12:33;102551.31;;;7.42;81.67
46430;BME280;32131;53.454;-6.180;2022-09-17T03:15:04;102547.56;;;7.37;81.71
46430;BME280;32131;53.454;-6.180;2022-09-17T03:17:33;102549.34;;;7.38;82.06
46430;BME280;32131;53.454;-6.180;2022-09-17T03:20:10;102554.47;;;7.38;81.99
46430;BME280;32131;53.454;-6.180;2022-09-17T03:22:55;102551.91;;;7.38;82.04
46430;BME280;32131;53.454;-6.180;2022-09-17T03:25:37;102561.41;;;7.39;82.31
46430;BME280;32131;53.454;-6.180;2022-09-17T03:28:09;102557.97;;;7.38;82.03
46430;BME280;32131;53.454;-6.180;2022-09-17T03:30:50;102550.94;;;7.36;82.11
46430;BME280;32131;53.454;-6.180;2022-09-17T03:33:19;102550.13;;;7.37;82.28
46430;BME280;32131;53.454;-6.180;2022-09-17T03:35:50;102550.78;;;7.33;82.72
46430;BME280;32131;53.454;-6.180;2022-09-17T03:38:22;102555.66;;;7.28;82.89
46430;BME280;32131;53.454;-6.180;2022-09-17T03:41:04;102549.25;;;7.21;82.91
46430;BME280;32131;53.454;-6.180;2022-09-17T03:43:36;102557.16;;;7.24;82.97
46430;BME280;32131;53.454;-6.180;2022-09-17T03:46:09;102551.09;;;7.24;82.96
46430;BME280;32131;53.454;-6.180;2022-09-17T03:49:15;102548.47;;;7.22;83.06
46430;BME280;32131;53.454;-6.180;2022-09-17T03:51:56;102558.81;;;7.24;83.31
46430;BME280;32131;53.454;-6.180;2022-09-17T03:54:49;102556.09;;;7.21;83.23
46430;BME280;32131;53.454;-6.180;2022-09-17T03:57:23;102548.28;;;7.19;83.19
46430;BME280;32131;53.454;-6.180;2022-09-17T04:00:03;102554.41;;;7.21;83.67
46430;BME280;32131;53.454;-6.180;2022-09-17T04:02:40;102555.25;;;7.22;83.30
46430;BME280;32131;53.454;-6.180;2022-09-17T04:05:14;102548.38;;;7.21;83.45
46430;BME280;32131;53.454;-6.180;2022-09-17T04:07:45;102545.69;;;7.19;83.42
46430;BME280;32131;53.454;-6.180;2022-09-17T04:10:17;102540.56;;;7.19;83.52
46430;BME280;32131;53.454;-6.180;2022-09-17T04:12:57;102546.41;;;7.17;83.74
46430;BME280;32131;53.454;-6.180;2022-09-17T04:15:42;102542.19;;;7.17;83.63
46430;BME280;32131;53.454;-6.180;2022-09-17T04:18:28;102536.13;;;7.17;83.72
46430;BME280;32131;53.454;-6.180;2022-09-17T04:21:08;102545.53;;;7.16;83.84
46430;BME280;32131;53.454;-6.180;2022-09-17T04:23:39;102543.75;;;7.15;84.03
46430;BME280;32131;53.454;-6.180;2022-09-17T04:26:19;102541.00;;;7.12;83.97
46430;BME280;32131;53.454;-6.180;2022-09-17T04:29:04;102546.16;;;7.12;84.09
46430;BME280;32131;53.454;-6.180;2022-09-17T04:31:40;102549.63;;;7.13;83.96
46430;BME280;32131;53.454;-6.180;2022-09-17T04:34:12;102543.41;;;7.09;84.21
46430;BME280;32131;53.454;-6.180;2022-09-17T04:36:57;102553.84;;;7.12;84.32
46430;BME280;32131;53.454;-6.180;2022-09-17T04:39:35;102555.63;;;7.13;84.41
46430;BME280;32131;53.454;-6.180;2022-09-17T04:42:07;102545.28;;;7.12;84.42
46430;BME280;32131;53.454;-6.180;2022-09-17T04:44:40;102548.91;;;7.15;84.41
46430;BME280;32131;53.454;-6.180;2022-09-17T04:47:14;102554.03;;;7.15;84.50
46430;BME280;32131;53.454;-6.180;2022-09-17T04:49:43;102547.91;;;7.13;84.30
46430;BME280;32131;53.454;-6.180;2022-09-17T04:52:16;102552.25;;;7.14;84.53
46430;BME280;32131;53.454;-6.180;2022-09-17T04:54:47;102559.19;;;7.15;84.65
46430;BME280;32131;53.454;-6.180;2022-09-17T04:57:31;102549.63;;;7.13;84.53
46430;BME280;32131;53.454;-6.180;2022-09-17T05:00:26;102563.53;;;7.16;84.83
46430;BME280;32131;53.454;-6.180;2022-09-17T05:03:01;102555.81;;;7.16;84.64
46430;BME280;32131;53.454;-6.180;2022-09-17T05:05:58;102551.47;;;7.15;84.92
46430;BME280;32131;53.454;-6.180;2022-09-17T05:08:40;102546.94;;;7.11;85.32
46430;BME280;32131;53.454;-6.180;2022-09-17T05:11:16;102544.28;;;7.10;85.33
46430;BME280;32131;53.454;-6.180;2022-09-17T05:14:07;102555.63;;;7.13;85.48
46430;BME280;32131;53.454;-6.180;2022-09-17T05:17:03;102555.44;;;7.10;85.01
46430;BME280;32131;53.454;-6.180;2022-09-17T05:20:11;102554.56;;;7.10;85.42
46430;BME280;32131;53.454;-6.180;2022-09-17T05:23:06;102560.97;;;7.16;85.44
46430;BME280;32131;53.454;-6.180;2022-09-17T05:26:16;102553.53;;;7.21;85.19
46430;BME280;32131;53.454;-6.180;2022-09-17T05:28:55;102554.41;;;7.21;84.96
46430;BME280;32131;53.454;-6.180;2022-09-17T05:31:42;102550.13;;;7.22;85.11
46430;BME280;32131;53.454;-6.180;2022-09-17T05:34:21;102554.75;;;7.28;84.90
46430;BME280;32131;53.454;-6.180;2022-09-17T05:36:58;102555.44;;;7.25;85.06
46430;BME280;32131;53.454;-6.180;2022-09-17T05:39:36;102550.13;;;7.22;85.29
46430;BME280;32131;53.454;-6.180;2022-09-17T05:42:05;102554.31;;;7.20;85.72
46430;BME280;32131;53.454;-6.180;2022-09-17T05:44:44;102552.25;;;7.14;85.91
46430;BME280;32131;53.454;-6.180;2022-09-17T05:47:23;102554.03;;;7.15;86.00
46430;BME280;32131;53.454;-6.180;2022-09-17T05:49:57;102548.72;;;7.12;86.20
46430;BME280;32131;53.454;-6.180;2022-09-17T05:52:26;102553.06;;;7.13;86.11
46430;BME280;32131;53.454;-6.180;2022-09-17T05:55:01;102549.50;;;7.11;86.27
46430;BME280;32131;53.454;-6.180;2022-09-17T05:57:44;102552.97;;;7.12;86.40
46430;BME280;32131;53.454;-6.180;2022-09-17T06:00:49;102550.13;;;7.07;86.81
46430;BME280;32131;53.454;-6.180;2022-09-17T06:03:30;102551.13;;;7.09;86.55
46430;BME280;32131;53.454;-6.180;2022-09-17T06:10:28;102559.78;;;7.11;86.93
46430;BME280;32131;53.454;-6.180;2022-09-17T06:13:08;102565.97;;;7.15;86.83
46430;BME280;32131;53.454;-6.180;2022-09-17T06:16:04;102556.09;;;7.21;86.55
46430;BME280;32131;53.454;-6.180;2022-09-17T06:18:49;102559.19;;;7.30;86.42
46430;BME280;32131;53.454;-6.180;2022-09-17T06:21:34;102560.41;;;7.37;86.13
46430;BME280;32131;53.454;-6.180;2022-09-17T06:24:09;102564.94;;;7.41;86.10
46430;BME280;32131;53.454;-6.180;2022-09-17T06:26:44;102566.09;;;7.46;85.86
46430;BME280;32131;53.454;-6.180;2022-09-17T06:32:24;102561.03;;;7.63;85.12
46430;BME280;32131;53.454;-6.180;2022-09-17T06:35:31;102576.78;;;7.69;85.08
46430;BME280;32131;53.454;-6.180;2022-09-17T06:38:10;102577.22;;;7.77;84.90
46430;BME280;32131;53.454;-6.180;2022-09-17T06:40:41;102568.78;;;7.79;84.91
46430;BME280;32131;53.454;-6.180;2022-09-17T06:43:20;102564.44;;;7.78;84.80
46430;BME280;32131;53.454;-6.180;2022-09-17T06:46:11;102573.22;;;7.82;84.92
46430;BME280;32131;53.454;-6.180;2022-09-17T06:49:11;102575.34;;;7.89;84.48
46430;BME280;32131;53.454;-6.180;2022-09-17T06:51:42;102573.13;;;7.95;84.45
46430;BME280;32131;53.454;-6.180;2022-09-17T06:54:42;102580.91;;;7.97;84.37
46430;BME280;32131;53.454;-6.180;2022-09-17T06:57:19;102576.09;;;8.03;84.18
46430;BME280;32131;53.454;-6.180;2022-09-17T07:03:54;102582.31;;;8.07;83.87
46430;BME280;32131;53.454;-6.180;2022-09-17T07:06:40;102590.28;;;8.11;83.80
46430;BME280;32131;53.454;-6.180;2022-09-17T07:09:32;102571.47;;;8.12;83.73
46430;BME280;32131;53.454;-6.180;2022-09-17T07:16:03;102577.44;;;8.28;83.42
46430;BME280;32131;53.454;-6.180;2022-09-17T07:23:00;102590.00;;;8.53;82.76
46430;BME280;32131;53.454;-6.180;2022-09-17T07:25:50;102594.72;;;8.95;82.07
46430;BME280;32131;53.454;-6.180;2022-09-17T07:28:57;102577.31;;;9.24;80.67
46430;BME280;32131;53.454;-6.180;2022-09-17T07:31:45;102581.47;;;9.38;79.96
46430;BME280;32131;53.454;-6.180;2022-09-17T07:34:42;102593.72;;;9.42;80.18
46430;BME280;32131;53.454;-6.180;2022-09-17T07:37:52;102595.78;;;9.50;79.87
46430;BME280;32131;53.454;-6.180;2022-09-17T07:41:16;102605.59;;;9.57;79.77
46430;BME280;32131;53.454;-6.180;2022-09-17T07:44:07;102594.22;;;9.53;79.29
46430;BME280;32131;53.454;-6.180;2022-09-17T07:46:36;102604.78;;;9.58;79.46
46430;BME280;32131;53.454;-6.180;2022-09-17T07:49:30;102597.03;;;9.58;79.43
46430;BME280;32131;53.454;-6.180;2022-09-17T07:52:45;102599.56;;;9.56;79.55
46430;BME280;32131;53.454;-6.180;2022-09-17T07:55:28;102602.50;;;9.64;79.42
46430;BME280;32131;53.454;-6.180;2022-09-17T07:58:40;102593.44;;;9.72;79.26
46430;BME280;32131;53.454;-6.180;2022-09-17T08:01:13;102592.56;;;9.72;79.30
46430;BME280;32131;53.454;-6.180;2022-09-17T08:03:56;102594.31;;;9.91;78.88
46430;BME280;32131;53.454;-6.180;2022-09-17T08:06:44;102593.44;;;10.09;78.19
46430;BME280;32131;53.454;-6.180;2022-09-17T08:13:02;102590.59;;;10.22;77.89
46430;BME280;32131;53.454;-6.180;2022-09-17T08:16:03;102595.00;;;10.25;77.87
46430;BME280;32131;53.454;-6.180;2022-09-17T08:22:02;102599.72;;;10.33;77.95
46430;BME280;32131;53.454;-6.180;2022-09-17T08:28:08;102605.34;;;10.43;77.86
46430;BME280;32131;53.454;-6.180;2022-09-17T08:31:50;102590.94;;;10.48;77.69
46430;BME280;32131;53.454;-6.180;2022-09-17T08:34:25;102590.28;;;10.52;77.47
46430;BME280;32131;53.454;-6.180;2022-09-17T08:40:44;102599.88;;;10.74;76.94
46430;BME280;32131;53.454;-6.180;2022-09-17T08:44:19;102611.72;;;10.89;76.41
46430;BME280;32131;53.454;-6.180;2022-09-17T08:47:49;102618.31;;;11.01;75.88
46430;BME280;32131;53.454;-6.180;2022-09-17T08:50:58;102611.00;;;11.12;75.13
46430;BME280;32131;53.454;-6.180;2022-09-17T08:54:02;102614.13;;;11.25;74.85
46430;BME280;32131;53.454;-6.180;2022-09-17T09:00:39;102613.44;;;11.50;74.04
46430;BME280;32131;53.454;-6.180;2022-09-17T09:03:42;102614.69;;;11.60;73.53
46430;BME280;32131;53.454;-6.180;2022-09-17T09:09:54;102612.09;;;11.81;72.19
46430;BME280;32131;53.454;-6.180;2022-09-17T09:12:43;102616.34;;;11.79;71.17
46430;BME280;32131;53.454;-6.180;2022-09-17T09:15:57;102615.63;;;11.83;71.02
46430;BME280;32131;53.454;-6.180;2022-09-17T09:22:19;102606.75;;;11.98;70.90
46430;BME280;32131;53.454;-6.180;2022-09-17T09:32:10;102601.28;;;12.35;70.43
46430;BME280;32131;53.454;-6.180;2022-09-17T09:35:15;102605.22;;;12.48;69.34
46430;BME280;32131;53.454;-6.180;2022-09-17T09:38:11;102618.84;;;12.67;68.97
46430;BME280;32131;53.454;-6.180;2022-09-17T09:41:52;102612.03;;;12.69;68.06
46430;BME280;32131;53.454;-6.180;2022-09-17T09:44:41;102599.81;;;12.90;67.07
46430;BME280;32131;53.454;-6.180;2022-09-17T09:47:56;102613.31;;;13.06;65.65
46430;BME280;32131;53.454;-6.180;2022-09-17T09:50:41;102609.03;;;13.07;64.09
46430;BME280;32131;53.454;-6.180;2022-09-17T09:53:49;102613.03;;;13.23;61.30
46430;BME280;32131;53.454;-6.180;2022-09-17T09:56:35;102608.91;;;13.54;58.94
46430;BME280;32131;53.454;-6.180;2022-09-17T10:02:57;102604.53;;;13.78;58.06
46430;BME280;32131;53.454;-6.180;2022-09-17T10:05:34;102622.41;;;13.69;58.05
46430;BME280;32131;53.454;-6.180;2022-09-17T10:08:11;102618.16;;;13.71;58.58
46430;BME280;32131;53.454;-6.180;2022-09-17T10:11:16;102614.28;;;14.14;56.97
46430;BME280;32131;53.454;-6.180;2022-09-17T10:14:25;102612.13;;;14.59;54.70
46430;BME280;32131;53.454;-6.180;2022-09-17T10:17:24;102619.22;;;14.95;54.22
46430;BME280;32131;53.454;-6.180;2022-09-17T10:20:31;102612.78;;;14.81;53.72
46430;BME280;32131;53.454;-6.180;2022-09-17T10:23:07;102611.16;;;14.86;53.18
46430;BME280;32131;53.454;-6.180;2022-09-17T10:25:51;102613.66;;;14.83;52.59
46430;BME280;32131;53.454;-6.180;2022-09-17T10:28:44;102621.16;;;15.02;52.78
46430;BME280;32131;53.454;-6.180;2022-09-17T10:31:33;102619.53;;;15.39;52.76
46430;BME280;32131;53.454;-6.180;2022-09-17T10:34:28;102616.28;;;15.50;52.20
46430;BME280;32131;53.454;-6.180;2022-09-17T10:40:40;102611.31;;;16.34;50.67
46430;BME280;32131;53.454;-6.180;2022-09-17T10:43:22;102608.63;;;15.91;51.27
46430;BME280;32131;53.454;-6.180;2022-09-17T10:45:58;102605.59;;;15.74;51.53
46430;BME280;32131;53.454;-6.180;2022-09-17T10:49:07;102617.34;;;15.93;51.85
46430;BME280;32131;53.454;-6.180;2022-09-17T10:52:17;102600.91;;;16.35;50.71
46430;BME280;32131;53.454;-6.180;2022-09-17T11:02:00;102613.63;;;15.47;51.16
46430;BME280;32131;53.454;-6.180;2022-09-17T11:10:00;102601.78;;;17.80;47.45
46430;BME280;32131;53.454;-6.180;2022-09-17T11:13:18;102602.34;;;17.10;46.90
46430;BME280;32131;53.454;-6.180;2022-09-17T11:16:30;102602.13;;;16.53;47.25
46430;BME280;32131;53.454;-6.180;2022-09-17T11:21:06;102591.78;;;16.15;48.05
46430;BME280;32131;53.454;-6.180;2022-09-17T11:27:10;102578.41;;;17.33;46.61
46430;BME280;32131;53.454;-6.180;2022-09-17T11:30:18;102586.31;;;17.37;46.95
46430;BME280;32131;53.454;-6.180;2022-09-17T11:36:01;102579.88;;;17.18;45.39
46430;BME280;32131;53.454;-6.180;2022-09-17T11:39:09;102574.09;;;16.87;45.97
46430;BME280;32131;53.454;-6.180;2022-09-17T11:59:07;102565.09;;;18.37;44.25
46430;BME280;32131;53.454;-6.180;2022-09-17T12:01:52;102565.69;;;18.14;45.24
46430;BME280;32131;53.454;-6.180;2022-09-17T12:04:44;102557.59;;;17.96;45.67
46430;BME280;32131;53.454;-6.180;2022-09-17T12:07:38;102553.13;;;17.88;45.14
46430;BME280;32131;53.454;-6.180;2022-09-17T12:10:55;102544.06;;;18.26;44.53
46430;BME280;32131;53.454;-6.180;2022-09-17T12:18:22;102545.00;;;18.33;44.62
46430;BME280;32131;53.454;-6.180;2022-09-17T12:21:27;102547.22;;;18.00;45.34
46430;BME280;32131;53.454;-6.180;2022-09-17T12:24:02;102544.81;;;17.56;45.35
46430;BME280;32131;53.454;-6.180;2022-09-17T12:33:53;102541.81;;;17.89;44.96
46430;BME280;32131;53.454;-6.180;2022-09-17T12:38:04;102536.53;;;18.56;43.38
46430;BME280;32131;53.454;-6.180;2022-09-17T12:46:26;102520.94;;;19.77;41.77
46430;BME280;32131;53.454;-6.180;2022-09-17T12:52:56;102518.53;;;20.18;41.77
46430;BME280;32131;53.454;-6.180;2022-09-17T12:56:34;102514.63;;;19.44;43.08
46430;BME280;32131;53.454;-6.180;2022-09-17T12:59:41;102525.53;;;18.91;43.79
46430;BME280;32131;53.454;-6.180;2022-09-17T13:03:22;102524.34;;;19.66;43.06
46430;BME280;32131;53.454;-6.180;2022-09-17T13:13:36;102522.44;;;19.37;41.73
46430;BME280;32131;53.454;-6.180;2022-09-17T13:16:17;102509.09;;;19.03;41.94
46430;BME280;32131;53.454;-6.180;2022-09-17T13:18:53;102508.22;;;19.02;42.39
46430;BME280;32131;53.454;-6.180;2022-09-17T13:21:58;102501.50;;;19.38;41.91
46430;BME280;32131;53.454;-6.180;2022-09-17T13:24:44;102502.38;;;19.39;41.39
46430;BME280;32131;53.454;-6.180;2022-09-17T13:27:21;102504.16;;;19.41;41.69
46430;BME280;32131;53.454;-6.180;2022-09-17T13:30:02;102499.78;;;19.43;40.72
46430;BME280;32131;53.454;-6.180;2022-09-17T13:32:48;102498.75;;;19.16;41.25
46430;BME280;32131;53.454;-6.180;2022-09-17T13:35:50;102495.19;;;19.10;40.93
46430;BME280;32131;53.454;-6.180;2022-09-17T13:42:00;102485.25;;;19.98;40.49
46430;BME280;32131;53.454;-6.180;2022-09-17T13:44:45;102492.34;;;20.27;39.34
46430;BME280;32131;53.454;-6.180;2022-09-17T13:47:28;102480.09;;;20.23;38.80
46430;BME280;32131;53.454;-6.180;2022-09-17T13:50:30;102479.28;;;20.47;39.07
46430;BME280;32131;53.454;-6.180;2022-09-17T13:57:03;102472.25;;;20.54;38.73
46430;BME280;32131;53.454;-6.180;2022-09-17T13:59:35;102469.63;;;20.38;38.18
46430;BME280;32131;53.454;-6.180;2022-09-17T14:02:32;102476.66;;;20.52;38.34
46430;BME280;32131;53.454;-6.180;2022-09-17T14:09:28;102459.19;;;20.82;37.99
46430;BME280;32131;53.454;-6.180;2022-09-17T14:11:52;102459.16;;;20.41;38.78
46430;BME280;32131;53.454;-6.180;2022-09-17T14:14:46;102459.78;;;19.77;40.07
46430;BME280;32131;53.454;-6.180;2022-09-17T14:17:51;102462.97;;;19.22;40.53
46430;BME280;32131;53.454;-6.180;2022-09-17T14:20:37;102458.19;;;18.71;41.70
46430;BME280;32131;53.454;-6.180;2022-09-17T14:23:31;102459.72;;;18.46;42.49
46430;BME280;32131;53.454;-6.180;2022-09-17T14:26:05;102463.09;;;18.37;42.22
46430;BME280;32131;53.454;-6.180;2022-09-17T14:28:49;102457.56;;;18.06;42.24
46430;BME280;32131;53.454;-6.180;2022-09-17T14:31:32;102455.75;;;18.02;42.48
46430;BME280;32131;53.454;-6.180;2022-09-17T14:34:32;102449.72;;;18.06;42.37
46430;BME280;32131;53.454;-6.180;2022-09-17T14:38:01;102454.53;;;18.50;42.80
46430;BME280;32131;53.454;-6.180;2022-09-17T14:40:46;102444.19;;;18.63;42.14
46430;BME280;32131;53.454;-6.180;2022-09-17T14:43:18;102452.69;;;18.43;41.88
46430;BME280;32131;53.454;-6.180;2022-09-17T14:45:52;102447.94;;;18.03;41.89
46430;BME280;32131;53.454;-6.180;2022-09-17T14:48:50;102440.75;;;17.87;42.51
46430;BME280;32131;53.454;-6.180;2022-09-17T14:51:27;102441.31;;;17.63;42.58
46430;BME280;32131;53.454;-6.180;2022-09-17T14:54:20;102441.97;;;17.46;43.03
46430;BME280;32131;53.454;-6.180;2022-09-17T14:57:02;102434.06;;;17.43;43.37
46430;BME280;32131;53.454;-6.180;2022-09-17T14:59:49;102439.00;;;17.21;43.11
46430;BME280;32131;53.454;-6.180;2022-09-17T15:02:48;102433.00;;;17.28;43.42
46430;BME280;32131;53.454;-6.180;2022-09-17T15:05:46;102427.91;;;17.36;43.60
46430;BME280;32131;53.454;-6.180;2022-09-17T15:08:29;102437.59;;;17.45;43.41
46430;BME280;32131;53.454;-6.180;2022-09-17T15:10:59;102427.19;;;17.48;43.33
46430;BME280;32131;53.454;-6.180;2022-09-17T15:16:24;102430.00;;;17.62;44.05
46430;BME280;32131;53.454;-6.180;2022-09-17T15:19:11;102425.75;;;17.72;44.10
46430;BME280;32131;53.454;-6.180;2022-09-17T15:22:07;102430.91;;;17.66;43.88
46430;BME280;32131;53.454;-6.180;2022-09-17T15:25:04;102423.75;;;17.52;44.34
46430;BME280;32131;53.454;-6.180;2022-09-17T15:27:50;102424.78;;;17.64;44.13
46430;BME280;32131;53.454;-6.180;2022-09-17T15:30:51;102427.72;;;17.90;44.15
46430;BME280;32131;53.454;-6.180;2022-09-17T15:33:28;102427.84;;;17.98;43.57
46430;BME280;32131;53.454;-6.180;2022-09-17T15:36:25;102418.09;;;17.86;43.88
46430;BME280;32131;53.454;-6.180;2022-09-17T15:39:36;102416.34;;;17.86;43.91
46430;BME280;32131;53.454;-6.180;2022-09-17T15:42:30;102419.75;;;17.79;44.13
46430;BME280;32131;53.454;-6.180;2022-09-17T15:45:27;102408.66;;;17.96;43.83
46430;BME280;32131;53.454;-6.180;2022-09-17T15:48:34;102409.72;;;18.15;43.98
46430;BME280;32131;53.454;-6.180;2022-09-17T15:51:21;102407.94;;;18.12;43.82
46430;BME280;32131;53.454;-6.180;2022-09-17T15:53:57;102408.84;;;18.14;44.05
46430;BME280;32131;53.454;-6.180;2022-09-17T15:56:40;102402.41;;;17.86;43.77
46430;BME280;32131;53.454;-6.180;2022-09-17T15:59:28;102401.09;;;17.48;44.09
46430;BME280;32131;53.454;-6.180;2022-09-17T16:02:24;102409.38;;;17.19;44.43
46430;BME280;32131;53.454;-6.180;2022-09-17T16:11:28;102402.19;;;17.03;45.01
46430;BME280;32131;53.454;-6.180;2022-09-17T16:19:58;102400.84;;;17.29;44.91
46430;BME280;32131;53.454;-6.180;2022-09-17T16:22:34;102404.28;;;17.27;44.70
46430;BME280;32131;53.454;-6.180;2022-09-17T16:25:21;102395.69;;;17.34;45.09
46430;BME280;32131;53.454;-6.180;2022-09-17T16:28:34;102396.00;;;17.57;44.74
46430;BME280;32131;53.454;-6.180;2022-09-17T16:31:12;102403.78;;;17.56;44.58
46430;BME280;32131;53.454;-6.180;2022-09-17T16:33:45;102397.31;;;17.27;44.55
46430;BME280;32131;53.454;-6.180;2022-09-17T16:36:35;102404.78;;;17.00;45.15
46430;BME280;32131;53.454;-6.180;2022-09-17T16:39:18;102401.91;;;16.86;45.27
46430;BME280;32131;53.454;-6.180;2022-09-17T16:41:49;102393.44;;;16.97;45.29
46430;BME280;32131;53.454;-6.180;2022-09-17T16:44:18;102398.72;;;17.04;45.33
46430;BME280;32131;53.454;-6.180;2022-09-17T16:46:46;102404.72;;;16.98;45.47
46430;BME280;32131;53.454;-6.180;2022-09-17T16:49:28;102402.47;;;16.66;45.47
46430;BME280;32131;53.454;-6.180;2022-09-17T16:52:07;102408.00;;;16.35;46.28
46430;BME280;32131;53.454;-6.180;2022-09-17T16:54:45;102405.97;;;16.17;46.86
46430;BME280;32131;53.454;-6.180;2022-09-17T16:57:15;102403.94;;;16.04;47.28
46430;BME280;32131;53.454;-6.180;2022-09-17T17:00:04;102404.47;;;15.86;47.65
46430;BME280;32131;53.454;-6.180;2022-09-17T17:02:43;102401.63;;;15.74;47.85